Gosforth, United Kingdom
Current Conditions -  °F | °C
As of 2:20 PM on Thursday 27 Nov 2014 (Local Time) from EGNT Reporting Station
Broken Clouds Broken Clouds  
Wind Chill: 48°   Ceiling: 2000
Heat Index: 48°   Visibility: 4mi
Dew Point: 48°   Wind: 0mph
Humidity: 100%   Direction: NA
Pressure: 29.56"   Gusts: NA
Location:  55°N, 1.62°W
Report Text: EGNT 271420Z 00000KT 7000 SCT008 BKN020 09/09 Q1001
Loading
Personal Weather Stations






























Interactive Weather Map New forecast layout! Learn more

10-Day Weather Forecast

Advertisements
Track Severe Weather on mobile